createdAt,value
2022-11-16T04:53:58.625Z,8.48
2022-11-16T05:58:41.295Z,8.31
2022-11-16T06:03:04.727Z,8.44
2022-11-16T06:56:58.111Z,8.61
2022-11-16T07:13:38.308Z,8.67
2022-11-16T07:17:38.594Z,8.68
2022-11-16T07:27:02.891Z,8.70
2022-11-16T07:30:31.317Z,8.61
2022-11-16T07:39:19.772Z,8.76
2022-11-16T07:43:27.333Z,8.82
2022-11-16T07:52:25.952Z,8.92
2022-11-16T07:56:16.751Z,8.92
2022-11-16T08:00:56.570Z,8.93
2022-11-16T08:04:28.867Z,8.94
2022-11-16T08:08:56.661Z,8.99
2022-11-16T08:12:38.522Z,9.09
2022-11-16T08:16:24.102Z,9.07
2022-11-16T08:19:46.662Z,8.91
2022-11-16T08:23:13.494Z,9.01
2022-11-16T08:26:54.307Z,9.07
2022-11-16T08:30:36.328Z,8.93
2022-11-16T08:34:12.355Z,9.10
2022-11-16T08:37:42.413Z,9.15
2022-11-16T08:41:02.894Z,9.06
2022-11-16T08:55:14.764Z,9.25
2022-11-16T08:59:02.768Z,9.28
2022-11-16T09:03:32.158Z,9.22
2022-11-16T09:07:06.422Z,9.28
2022-11-16T09:16:59.672Z,9.34
2022-11-16T09:25:51.881Z,9.22
2022-11-16T09:29:22.470Z,9.28
2022-11-16T09:33:14.224Z,9.38
2022-11-16T09:36:27.663Z,9.47
2022-11-16T09:40:24.509Z,9.45
2022-11-16T09:44:45.353Z,9.51
2022-11-16T09:48:44.433Z,9.56
2022-11-16T09:53:22.372Z,9.57
2022-11-16T09:58:04.679Z,9.49
2022-11-16T10:01:40.123Z,9.49
2022-11-16T10:05:00.812Z,9.51
2022-11-16T10:09:27.372Z,9.54
2022-11-16T10:14:04.006Z,9.55
2022-11-16T10:18:48.563Z,9.57
2022-11-16T10:23:47.589Z,9.64
2022-11-16T10:27:44.072Z,9.59
2022-11-16T10:32:26.305Z,9.57
2022-11-16T10:47:17.852Z,9.54
2022-11-16T11:01:47.088Z,9.55
2022-11-16T11:05:31.826Z,9.59
2022-11-16T11:08:51.488Z,9.62
2022-11-16T11:12:25.507Z,9.67
2022-11-16T11:15:48.485Z,9.65
2022-11-16T11:19:41.446Z,9.77
2022-11-16T11:23:21.827Z,9.83
2022-11-16T11:27:16.384Z,9.62
2022-11-16T11:32:06.575Z,9.79
2022-11-16T11:40:33.228Z,9.75
2022-11-16T11:43:48.842Z,9.76
2022-11-16T11:48:02.968Z,9.66
2022-11-16T11:52:43.088Z,9.78
2022-11-16T11:56:12.229Z,9.79
2022-11-16T11:59:22.007Z,9.78
2022-11-16T12:03:00.502Z,9.72
2022-11-16T12:06:58.797Z,9.74
2022-11-16T12:10:47.175Z,9.68
2022-11-16T12:14:51.564Z,9.65
2022-11-16T12:18:47.861Z,9.59
2022-11-16T12:22:59.662Z,9.64
2022-11-16T12:32:06.501Z,9.70
2022-11-16T12:36:05.319Z,9.72
2022-11-16T12:39:38.100Z,9.75
2022-11-16T12:47:59.668Z,9.68
2022-11-16T12:51:55.944Z,9.71
2022-11-16T12:55:26.915Z,9.73
2022-11-16T12:59:12.875Z,9.72
2022-11-16T13:07:32.210Z,9.77
2022-11-16T13:15:21.920Z,9.60
2022-11-16T13:19:13.528Z,9.61
2022-11-16T13:22:27.058Z,9.64
2022-11-16T13:26:21.760Z,9.64
2022-11-16T13:30:16.484Z,9.65
2022-11-16T13:34:13.565Z,9.62
2022-11-16T13:37:47.846Z,9.64
2022-11-16T13:41:48.798Z,9.67
2022-11-16T13:46:56.590Z,9.61
2022-11-16T13:50:45.296Z,9.58
2022-11-16T13:55:40.532Z,9.66
2022-11-16T13:59:03.080Z,9.61
2022-11-16T14:02:42.290Z,9.65
2022-11-16T14:07:24.765Z,9.55
2022-11-16T14:11:11.778Z,9.42
2022-11-16T14:15:34.946Z,9.37
2022-11-16T14:18:54.101Z,9.34
2022-11-16T14:22:26.107Z,9.35
2022-11-16T14:26:21.630Z,9.37
2022-11-16T14:30:28.539Z,9.37
2022-11-16T14:33:57.116Z,9.37
2022-11-16T14:43:15.566Z,9.27
2022-11-16T14:46:50.240Z,9.22
2022-11-16T14:50:39.701Z,9.21
2022-11-16T14:54:08.160Z,9.25
2022-11-16T14:57:24.663Z,9.28
2022-11-16T15:01:19.188Z,9.25
2022-11-16T15:04:57.717Z,9.21
2022-11-16T15:10:12.956Z,9.24
2022-11-16T19:17:14.742Z,8.96
